sensor_id;sensor_type;location;lat;lon;timestamp;pressure;altitude;pressure_sealevel;temperature;humidity
3122;BME280;1571;52.524;14.104;2024-02-15T00:01:22;101306.03;;;8.71;100.00
3122;BME280;1571;52.524;14.104;2024-02-15T00:03:50;101298.03;;;8.72;100.00
3122;BME280;1571;52.524;14.104;2024-02-15T00:06:19;101303.34;;;8.72;100.00
3122;BME280;1571;52.524;14.104;2024-02-15T00:08:48;101295.81;;;8.63;100.00
3122;BME280;1571;52.524;14.104;2024-02-15T00:11:17;101293.69;;;8.71;100.00
3122;BME280;1571;52.524;14.104;2024-02-15T00:13:45;101293.31;;;8.60;100.00
3122;BME280;1571;52.524;14.104;2024-02-15T00:16:15;101304.09;;;8.55;100.00
3122;BME280;1571;52.524;14.104;2024-02-15T00:18:43;101291.75;;;8.56;100.00
3122;BME280;1571;52.524;14.104;2024-02-15T00:21:12;101295.66;;;8.47;100.00
3122;BME280;1571;52.524;14.104;2024-02-15T00:23:41;101304.66;;;8.62;100.00
3122;BME280;1571;52.524;14.104;2024-02-15T00:26:09;101299.59;;;8.58;100.00
3122;BME280;1571;52.524;14.104;2024-02-15T00:28:41;101304.50;;;8.46;100.00
3122;BME280;1571;52.524;14.104;2024-02-15T00:31:09;101307.53;;;8.58;100.00
3122;BME280;1571;52.524;14.104;2024-02-15T00:33:39;101301.38;;;8.57;100.00
3122;BME280;1571;52.524;14.104;2024-02-15T00:36:09;101298.03;;;8.53;100.00
3122;BME280;1571;52.524;14.104;2024-02-15T00:38:38;101311.66;;;8.44;100.00
3122;BME280;1571;52.524;14.104;2024-02-15T00:41:06;101306.25;;;8.47;100.00
3122;BME280;1571;52.524;14.104;2024-02-15T00:43:35;101308.88;;;8.47;100.00
3122;BME280;1571;52.524;14.104;2024-02-15T00:46:03;101299.09;;;8.49;100.00
3122;BME280;1571;52.524;14.104;2024-02-15T00:48:32;101304.88;;;8.58;100.00
3122;BME280;1571;52.524;14.104;2024-02-15T00:51:03;101306.41;;;8.63;100.00
3122;BME280;1571;52.524;14.104;2024-02-15T00:53:31;101307.69;;;8.54;100.00
3122;BME280;1571;52.524;14.104;2024-02-15T00:56:00;101308.09;;;8.64;100.00
3122;BME280;1571;52.524;14.104;2024-02-15T00:58:28;101310.97;;;8.60;100.00
3122;BME280;1571;52.524;14.104;2024-02-15T01:00:56;101309.25;;;8.59;100.00
3122;BME280;1571;52.524;14.104;2024-02-15T01:03:25;101312.31;;;8.49;100.00
3122;BME280;1571;52.524;14.104;2024-02-15T01:05:53;101310.47;;;8.51;100.00
3122;BME280;1571;52.524;14.104;2024-02-15T01:08:23;101314.69;;;8.55;100.00
3122;BME280;1571;52.524;14.104;2024-02-15T01:10:51;101314.56;;;8.59;100.00
3122;BME280;1571;52.524;14.104;2024-02-15T01:13:20;101320.69;;;8.59;100.00
3122;BME280;1571;52.524;14.104;2024-02-15T01:15:49;101317.84;;;8.64;100.00
3122;BME280;1571;52.524;14.104;2024-02-15T01:18:17;101326.34;;;8.51;100.00
3122;BME280;1571;52.524;14.104;2024-02-15T01:20:45;101325.16;;;8.59;100.00
3122;BME280;1571;52.524;14.104;2024-02-15T01:23:14;101315.19;;;8.64;100.00
3122;BME280;1571;52.524;14.104;2024-02-15T01:25:43;101309.00;;;8.65;100.00
3122;BME280;1571;52.524;14.104;2024-02-15T01:28:12;101312.97;;;8.54;100.00
3122;BME280;1571;52.524;14.104;2024-02-15T01:30:41;101307.63;;;8.56;100.00
3122;BME280;1571;52.524;14.104;2024-02-15T01:33:10;101310.84;;;8.63;100.00
3122;BME280;1571;52.524;14.104;2024-02-15T01:35:39;101306.56;;;8.60;100.00
3122;BME280;1571;52.524;14.104;2024-02-15T01:38:07;101310.97;;;8.60;100.00
3122;BME280;1571;52.524;14.104;2024-02-15T01:40:36;101306.03;;;8.52;100.00
3122;BME280;1571;52.524;14.104;2024-02-15T01:43:05;101301.59;;;8.52;100.00
3122;BME280;1571;52.524;14.104;2024-02-15T01:45:33;101312.81;;;8.58;100.00
3122;BME280;1571;52.524;14.104;2024-02-15T01:48:03;101308.53;;;8.55;100.00
3122;BME280;1571;52.524;14.104;2024-02-15T01:50:32;101309.91;;;8.64;100.00
3122;BME280;1571;52.524;14.104;2024-02-15T01:53:04;101306.34;;;8.65;100.00
3122;BME280;1571;52.524;14.104;2024-02-15T01:55:34;101305.19;;;8.51;100.00
3122;BME280;1571;52.524;14.104;2024-02-15T01:58:03;101304.47;;;8.67;100.00
3122;BME280;1571;52.524;14.104;2024-02-15T02:00:34;101297.09;;;8.54;100.00
3122;BME280;1571;52.524;14.104;2024-02-15T02:03:05;101297.09;;;8.54;100.00
3122;BME280;1571;52.524;14.104;2024-02-15T02:05:33;101297.47;;;8.66;100.00
3122;BME280;1571;52.524;14.104;2024-02-15T02:08:02;101292.53;;;8.58;100.00
3122;BME280;1571;52.524;14.104;2024-02-15T02:10:31;101300.13;;;8.66;100.00
3122;BME280;1571;52.524;14.104;2024-02-15T02:13:00;101299.84;;;8.72;100.00
3122;BME280;1571;52.524;14.104;2024-02-15T02:15:31;101296.13;;;8.76;100.00
3122;BME280;1571;52.524;14.104;2024-02-15T02:18:01;101296.41;;;8.70;100.00
3122;BME280;1571;52.524;14.104;2024-02-15T02:20:29;101294.97;;;8.63;100.00
3122;BME280;1571;52.524;14.104;2024-02-15T02:23:03;101292.09;;;8.67;100.00
3122;BME280;1571;52.524;14.104;2024-02-15T02:25:36;101293.81;;;8.68;100.00
3122;BME280;1571;52.524;14.104;2024-02-15T02:28:05;101293.59;;;8.73;100.00
3122;BME280;1571;52.524;14.104;2024-02-15T02:30:34;101301.75;;;8.68;100.00
3122;BME280;1571;52.524;14.104;2024-02-15T02:33:03;101296.41;;;8.70;100.00
3122;BME280;1571;52.524;14.104;2024-02-15T02:35:34;101287.81;;;8.65;100.00
3122;BME280;1571;52.524;14.104;2024-02-15T02:38:03;101289.69;;;8.63;100.00
3122;BME280;1571;52.524;14.104;2024-02-15T02:40:31;101300.75;;;8.71;100.00
3122;BME280;1571;52.524;14.104;2024-02-15T02:43:02;101294.41;;;8.75;100.00
3122;BME280;1571;52.524;14.104;2024-02-15T02:45:31;101298.69;;;8.78;100.00
3122;BME280;1571;52.524;14.104;2024-02-15T02:47:59;101294.34;;;8.77;100.00
3122;BME280;1571;52.524;14.104;2024-02-15T02:50:27;101301.06;;;8.84;100.00
3122;BME280;1571;52.524;14.104;2024-02-15T02:52:56;101295.97;;;8.79;100.00
3122;BME280;1571;52.524;14.104;2024-02-15T02:55:24;101298.03;;;8.72;100.00
3122;BME280;1571;52.524;14.104;2024-02-15T02:57:55;101296.53;;;8.67;100.00
3122;BME280;1571;52.524;14.104;2024-02-15T03:00:25;101303.84;;;8.81;100.00
3122;BME280;1571;52.524;14.104;2024-02-15T03:02:54;101308.84;;;8.87;100.00
3122;BME280;1571;52.524;14.104;2024-02-15T03:05:24;101302.69;;;8.86;100.00
3122;BME280;1571;52.524;14.104;2024-02-15T03:07:52;101309.06;;;8.82;100.00
3122;BME280;1571;52.524;14.104;2024-02-15T03:10:21;101300.13;;;8.85;100.00
3122;BME280;1571;52.524;14.104;2024-02-15T03:12:49;101309.41;;;8.93;100.00
3122;BME280;1571;52.524;14.104;2024-02-15T03:15:17;101299.94;;;8.89;100.00
3122;BME280;1571;52.524;14.104;2024-02-15T03:17:48;101298.78;;;8.95;100.00
3122;BME280;1571;52.524;14.104;2024-02-15T03:20:17;101303.84;;;9.00;100.00
3122;BME280;1571;52.524;14.104;2024-02-15T03:22:53;101300.13;;;9.04;100.00
3122;BME280;1571;52.524;14.104;2024-02-15T03:25:22;101299.78;;;8.92;100.00
3122;BME280;1571;52.524;14.104;2024-02-15T03:27:52;101298.78;;;8.95;100.00
3122;BME280;1571;52.524;14.104;2024-02-15T03:30:21;101303.44;;;8.90;100.00
3122;BME280;1571;52.524;14.104;2024-02-15T03:32:51;101305.44;;;9.04;100.00
3122;BME280;1571;52.524;14.104;2024-02-15T03:35:21;101305.44;;;9.04;100.00
3122;BME280;1571;52.524;14.104;2024-02-15T03:37:51;101304.47;;;9.05;100.00
3122;BME280;1571;52.524;14.104;2024-02-15T03:40:20;101299.75;;;9.11;100.00
3122;BME280;1571;52.524;14.104;2024-02-15T03:42:49;101294.09;;;9.00;100.00
3122;BME280;1571;52.524;14.104;2024-02-15T03:45:18;101290.97;;;8.92;100.00
3122;BME280;1571;52.524;14.104;2024-02-15T03:47:46;101296.63;;;8.84;100.00
3122;BME280;1571;52.524;14.104;2024-02-15T03:50:18;101297.19;;;8.91;100.00
3122;BME280;1571;52.524;14.104;2024-02-15T03:52:49;101300.34;;;8.99;100.00
3122;BME280;1571;52.524;14.104;2024-02-15T03:55:18;101298.72;;;8.96;100.00
3122;BME280;1571;52.524;14.104;2024-02-15T03:57:49;101297.13;;;8.92;100.00
3122;BME280;1571;52.524;14.104;2024-02-15T04:00:17;101299.13;;;8.87;100.00
3122;BME280;1571;52.524;14.104;2024-02-15T04:02:49;101304.78;;;8.99;100.00
3122;BME280;1571;52.524;14.104;2024-02-15T04:05:19;101310.94;;;8.99;100.00
3122;BME280;1571;52.524;14.104;2024-02-15T04:07:49;101308.88;;;9.06;100.00
3122;BME280;1571;52.524;14.104;2024-02-15T04:10:17;101312.59;;;9.02;100.00
3122;BME280;1571;52.524;14.104;2024-02-15T04:12:46;101306.44;;;9.01;100.00
3122;BME280;1571;52.524;14.104;2024-02-15T04:15:14;101310.09;;;8.99;100.00
3122;BME280;1571;52.524;14.104;2024-02-15T04:17:45;101303.84;;;9.00;100.00
3122;BME280;1571;52.524;14.104;2024-02-15T04:20:14;101306.72;;;8.95;100.00
3122;BME280;1571;52.524;14.104;2024-02-15T04:22:46;101309.94;;;9.02;100.00
3122;BME280;1571;52.524;14.104;2024-02-15T04:25:15;101314.00;;;9.09;100.00
3122;BME280;1571;52.524;14.104;2024-02-15T04:27:45;101310.09;;;8.99;100.00
3122;BME280;1571;52.524;14.104;2024-02-15T04:30:14;101309.16;;;9.00;100.00
3122;BME280;1571;52.524;14.104;2024-02-15T04:32:44;101314.44;;;9.00;100.00
3122;BME280;1571;52.524;14.104;2024-02-15T04:35:12;101326.34;;;9.10;100.00
3122;BME280;1571;52.524;14.104;2024-02-15T04:37:41;101311.63;;;9.03;100.00
3122;BME280;1571;52.524;14.104;2024-02-15T04:40:11;101319.00;;;8.96;100.00
3122;BME280;1571;52.524;14.104;2024-02-15T04:42:41;101318.72;;;9.02;100.00
3122;BME280;1571;52.524;14.104;2024-02-15T04:45:12;101316.81;;;9.06;100.00
3122;BME280;1571;52.524;14.104;2024-02-15T04:47:43;101320.16;;;9.09;100.00
3122;BME280;1571;52.524;14.104;2024-02-15T04:50:13;101319.09;;;9.13;100.00
3122;BME280;1571;52.524;14.104;2024-02-15T04:52:42;101313.53;;;9.01;100.00
3122;BME280;1571;52.524;14.104;2024-02-15T04:55:14;101323.38;;;9.16;100.00
3122;BME280;1571;52.524;14.104;2024-02-15T04:57:44;101324.47;;;9.12;100.00
3122;BME280;1571;52.524;14.104;2024-02-15T05:00:15;101320.16;;;9.09;100.00
3122;BME280;1571;52.524;14.104;2024-02-15T05:02:48;101321.03;;;9.10;100.00
3122;BME280;1571;52.524;14.104;2024-02-15T05:05:17;101313.59;;;8.99;100.00
3122;BME280;1571;52.524;14.104;2024-02-15T05:07:45;101316.88;;;9.04;100.00
3122;BME280;1571;52.524;14.104;2024-02-15T05:10:17;101316.81;;;9.06;100.00
3122;BME280;1571;52.524;14.104;2024-02-15T05:12:46;101316.25;;;8.99;100.00
3122;BME280;1571;52.524;14.104;2024-02-15T05:15:15;101322.47;;;9.17;100.00
3122;BME280;1571;52.524;14.104;2024-02-15T05:17:45;101316.03;;;9.04;100.00
3122;BME280;1571;52.524;14.104;2024-02-15T05:20:15;101324.75;;;9.06;100.00
3122;BME280;1571;52.524;14.104;2024-02-15T05:22:44;101319.09;;;8.94;100.00
3122;BME280;1571;52.524;14.104;2024-02-15T05:25:19;101325.75;;;9.03;100.00
3122;BME280;1571;52.524;14.104;2024-02-15T05:27:53;101334.03;;;8.95;100.00
3122;BME280;1571;52.524;14.104;2024-02-15T05:30:24;101329.91;;;8.90;100.00
3122;BME280;1571;52.524;14.104;2024-02-15T05:32:52;101336.63;;;8.97;100.00
3122;BME280;1571;52.524;14.104;2024-02-15T05:35:22;101343.19;;;9.07;100.00
3122;BME280;1571;52.524;14.104;2024-02-15T05:37:51;101341.44;;;9.08;100.00
3122;BME280;1571;52.524;14.104;2024-02-15T05:40:22;101338.69;;;9.09;100.00
3122;BME280;1571;52.524;14.104;2024-02-15T05:42:55;101344.63;;;8.95;100.00
3122;BME280;1571;52.524;14.104;2024-02-15T05:45:30;101339.66;;;9.08;100.00
3122;BME280;1571;52.524;14.104;2024-02-15T05:48:03;101345.78;;;9.09;100.00
3122;BME280;1571;52.524;14.104;2024-02-15T05:50:34;101338.28;;;9.00;100.00
3122;BME280;1571;52.524;14.104;2024-02-15T05:53:03;101346.06;;;9.03;100.00
3122;BME280;1571;52.524;14.104;2024-02-15T05:55:33;101347.81;;;9.04;100.00
3122;BME280;1571;52.524;14.104;2024-02-15T05:58:03;101353.16;;;9.02;100.00
3122;BME280;1571;52.524;14.104;2024-02-15T06:00:31;101357.75;;;8.99;100.00
3122;BME280;1571;52.524;14.104;2024-02-15T06:03:02;101359.75;;;9.12;100.00
3122;BME280;1571;52.524;14.104;2024-02-15T06:05:31;101347.53;;;9.10;100.00
3122;BME280;1571;52.524;14.104;2024-02-15T06:07:59;101351.25;;;9.06;100.00
3122;BME280;1571;52.524;14.104;2024-02-15T06:10:27;101359.56;;;9.17;100.00
3122;BME280;1571;52.524;14.104;2024-02-15T06:12:58;101357.69;;;9.19;100.00
3122;BME280;1571;52.524;14.104;2024-02-15T06:15:26;101354.94;;;9.21;100.00
3122;BME280;1571;52.524;14.104;2024-02-15T06:17:55;101356.53;;;9.25;100.00
3122;BME280;1571;52.524;14.104;2024-02-15T06:20:24;101361.13;;;9.21;100.00
3122;BME280;1571;52.524;14.104;2024-02-15T06:22:56;101348.16;;;9.15;100.00
3122;BME280;1571;52.524;14.104;2024-02-15T06:25:24;101350.38;;;9.24;100.00
3122;BME280;1571;52.524;14.104;2024-02-15T06:27:53;101353.66;;;9.29;100.00
3122;BME280;1571;52.524;14.104;2024-02-15T06:30:28;101347.22;;;9.16;100.00
3122;BME280;1571;52.524;14.104;2024-02-15T06:33:14;101348.53;;;9.26;100.00
3122;BME280;1571;52.524;14.104;2024-02-15T06:36:06;101353.31;;;9.18;100.00
3122;BME280;1571;52.524;14.104;2024-02-15T06:38:52;101357.09;;;9.31;100.00
3122;BME280;1571;52.524;14.104;2024-02-15T06:41:38;101360.03;;;9.25;100.00
3122;BME280;1571;52.524;14.104;2024-02-15T06:44:07;101374.41;;;9.38;100.00
3122;BME280;1571;52.524;14.104;2024-02-15T06:46:38;101370.72;;;9.24;100.00
3122;BME280;1571;52.524;14.104;2024-02-15T06:49:06;101377.44;;;9.31;100.00
3122;BME280;1571;52.524;14.104;2024-02-15T06:51:34;101377.66;;;9.26;100.00
3122;BME280;1571;52.524;14.104;2024-02-15T06:54:03;101378.19;;;9.34;100.00
3122;BME280;1571;52.524;14.104;2024-02-15T06:56:35;101375.59;;;9.33;100.00
3122;BME280;1571;52.524;14.104;2024-02-15T06:59:04;101378.44;;;9.28;100.00
3122;BME280;1571;52.524;14.104;2024-02-15T07:01:32;101381.00;;;9.30;100.00
3122;BME280;1571;52.524;14.104;2024-02-15T07:04:03;101384.22;;;9.36;100.00
3122;BME280;1571;52.524;14.104;2024-02-15T07:06:32;101387.22;;;9.48;100.00
3122;BME280;1571;52.524;14.104;2024-02-15T07:09:02;101382.47;;;9.37;100.00
3122;BME280;1571;52.524;14.104;2024-02-15T07:11:31;101391.78;;;9.46;100.00
3122;BME280;1571;52.524;14.104;2024-02-15T07:14:00;101388.34;;;9.44;100.00
3122;BME280;1571;52.524;14.104;2024-02-15T07:16:28;101391.03;;;9.42;100.00
3122;BME280;1571;52.524;14.104;2024-02-15T07:18:56;101387.38;;;9.45;100.00
3122;BME280;1571;52.524;14.104;2024-02-15T07:21:26;101396.63;;;9.36;100.00
3122;BME280;1571;52.524;14.104;2024-02-15T07:23:55;101394.63;;;9.60;100.00
3122;BME280;1571;52.524;14.104;2024-02-15T07:26:23;101391.19;;;9.58;100.00
3122;BME280;1571;52.524;14.104;2024-02-15T07:28:53;101404.50;;;9.56;100.00
3122;BME280;1571;52.524;14.104;2024-02-15T07:31:23;101397.31;;;9.58;100.00
3122;BME280;1571;52.524;14.104;2024-02-15T07:33:56;101392.88;;;9.59;100.00
3122;BME280;1571;52.524;14.104;2024-02-15T07:36:26;101391.59;;;9.68;100.00
3122;BME280;1571;52.524;14.104;2024-02-15T07:38:55;101394.78;;;9.74;100.00
3122;BME280;1571;52.524;14.104;2024-02-15T07:41:25;101395.88;;;9.70;100.00
3122;BME280;1571;52.524;14.104;2024-02-15T07:43:53;101399.97;;;9.77;100.00
3122;BME280;1571;52.524;14.104;2024-02-15T07:46:22;101399.47;;;9.69;100.00
3122;BME280;1571;52.524;14.104;2024-02-15T07:48:51;101394.00;;;9.72;100.00
3122;BME280;1571;52.524;14.104;2024-02-15T07:51:21;101402.19;;;9.87;100.00
3122;BME280;1571;52.524;14.104;2024-02-15T07:53:51;101397.56;;;9.90;100.00
3122;BME280;1571;52.524;14.104;2024-02-15T07:56:20;101395.91;;;9.88;100.00
3122;BME280;1571;52.524;14.104;2024-02-15T07:58:48;101392.25;;;9.90;100.00
3122;BME280;1571;52.524;14.104;2024-02-15T08:01:20;101390.72;;;10.04;100.00
3122;BME280;1571;52.524;14.104;2024-02-15T08:03:51;101392.28;;;10.08;100.00
3122;BME280;1571;52.524;14.104;2024-02-15T08:06:22;101388.91;;;10.04;100.00
3122;BME280;1571;52.524;14.104;2024-02-15T08:08:54;101387.22;;;10.03;100.00
3122;BME280;1571;52.524;14.104;2024-02-15T08:11:22;101380.28;;;10.18;100.00
3122;BME280;1571;52.524;14.104;2024-02-15T08:13:53;101390.91;;;10.18;100.00
3122;BME280;1571;52.524;14.104;2024-02-15T08:16:24;101378.31;;;10.21;100.00
3122;BME280;1571;52.524;14.104;2024-02-15T08:18:54;101381.44;;;10.12;100.00
3122;BME280;1571;52.524;14.104;2024-02-15T08:21:26;101380.97;;;10.21;100.00
3122;BME280;1571;52.524;14.104;2024-02-15T08:23:58;101367.03;;;10.18;100.00
3122;BME280;1571;52.524;14.104;2024-02-15T08:26:27;101371.38;;;10.19;100.00
3122;BME280;1571;52.524;14.104;2024-02-15T08:28:56;101374.09;;;10.17;100.00
3122;BME280;1571;52.524;14.104;2024-02-15T08:31:25;101384.72;;;10.17;100.00
3122;BME280;1571;52.524;14.104;2024-02-15T08:33:53;101383.59;;;10.04;100.00
3122;BME280;1571;52.524;14.104;2024-02-15T08:36:22;101396.88;;;10.04;100.00
3122;BME280;1571;52.524;14.104;2024-02-15T08:38:50;101393.13;;;10.08;100.00
3122;BME280;1571;52.524;14.104;2024-02-15T08:41:20;101404.22;;;10.16;100.00
3122;BME280;1571;52.524;14.104;2024-02-15T08:43:50;101413.91;;;10.17;100.00
3122;BME280;1571;52.524;14.104;2024-02-15T08:46:19;101412.03;;;10.19;100.00
3122;BME280;1571;52.524;14.104;2024-02-15T08:48:48;101413.03;;;10.17;100.00
3122;BME280;1571;52.524;14.104;2024-02-15T08:51:17;101412.81;;;10.21;100.00
3122;BME280;1571;52.524;14.104;2024-02-15T08:53:50;101416.97;;;10.45;100.00
3122;BME280;1571;52.524;14.104;2024-02-15T08:56:20;101410.50;;;10.50;100.00
3122;BME280;1571;52.524;14.104;2024-02-15T08:58:50;101403.63;;;10.46;100.00
3122;BME280;1571;52.524;14.104;2024-02-15T09:01:18;101401.00;;;10.46;100.00
3122;BME280;1571;52.524;14.104;2024-02-15T09:03:46;101387.47;;;10.51;100.00
3122;BME280;1571;52.524;14.104;2024-02-15T09:06:15;101390.00;;;10.54;100.00
3122;BME280;1571;52.524;14.104;2024-02-15T09:08:44;101391.91;;;10.68;100.00
3122;BME280;1571;52.524;14.104;2024-02-15T09:11:12;101383.25;;;10.64;100.00
3122;BME280;1571;52.524;14.104;2024-02-15T09:13:42;101381.00;;;10.56;100.00
3122;BME280;1571;52.524;14.104;2024-02-15T09:16:10;101384.22;;;10.46;100.00
3122;BME280;1571;52.524;14.104;2024-02-15T09:18:39;101377.16;;;10.62;100.00
3122;BME280;1571;52.524;14.104;2024-02-15T09:21:12;101373.97;;;10.55;100.00
3122;BME280;1571;52.524;14.104;2024-02-15T09:23:41;101379.50;;;10.68;100.00
3122;BME280;1571;52.524;14.104;2024-02-15T09:26:09;101367.84;;;10.71;100.00
3122;BME280;1571;52.524;14.104;2024-02-15T09:28:39;101374.91;;;10.72;100.00
3122;BME280;1571;52.524;14.104;2024-02-15T09:31:12;101363.03;;;10.61;100.00
3122;BME280;1571;52.524;14.104;2024-02-15T09:33:40;101371.00;;;10.95;100.00
3122;BME280;1571;52.524;14.104;2024-02-15T09:36:09;101364.63;;;10.81;100.00
3122;BME280;1571;52.524;14.104;2024-02-15T09:38:39;101365.16;;;10.88;100.00
3122;BME280;1571;52.524;14.104;2024-02-15T09:41:07;101360.16;;;10.82;100.00
3122;BME280;1571;52.524;14.104;2024-02-15T09:43:36;101367.84;;;10.71;100.00
3122;BME280;1571;52.524;14.104;2024-02-15T09:46:04;101367.00;;;11.19;100.00
3122;BME280;1571;52.524;14.104;2024-02-15T09:48:35;101359.94;;;11.02;100.00
3122;BME280;1571;52.524;14.104;2024-02-15T09:51:07;101358.63;;;10.94;100.00
3122;BME280;1571;52.524;14.104;2024-02-15T09:53:35;101357.78;;;10.93;100.00
3122;BME280;1571;52.524;14.104;2024-02-15T09:56:04;101372.63;;;10.97;100.00
3122;BME280;1571;52.524;14.104;2024-02-15T09:58:33;101353.34;;;11.41;100.00
3122;BME280;1571;52.524;14.104;2024-02-15T10:01:04;101349.78;;;11.11;100.00
3122;BME280;1571;52.524;14.104;2024-02-15T10:03:38;101351.81;;;11.06;100.00
3122;BME280;1571;52.524;14.104;2024-02-15T10:06:08;101350.44;;;11.14;100.00
3122;BME280;1571;52.524;14.104;2024-02-15T10:08:37;101351.06;;;11.03;100.00
3122;BME280;1571;52.524;14.104;2024-02-15T10:11:06;101348.22;;;11.07;100.00
3122;BME280;1571;52.524;14.104;2024-02-15T10:13:36;101359.53;;;11.10;100.00
3122;BME280;1571;52.524;14.104;2024-02-15T10:16:15;101364.25;;;11.21;100.00
3122;BME280;1571;52.524;14.104;2024-02-15T10:18:45;101367.59;;;11.40;100.00
3122;BME280;1571;52.524;14.104;2024-02-15T10:21:25;101369.31;;;11.41;100.00
3122;BME280;1571;52.524;14.104;2024-02-15T10:24:05;101362.47;;;11.37;100.00
3122;BME280;1571;52.524;14.104;2024-02-15T10:26:35;101360.06;;;11.33;100.00
3122;BME280;1571;52.524;14.104;2024-02-15T10:29:08;101363.47;;;11.19;100.00
3122;BME280;1571;52.524;14.104;2024-02-15T10:31:40;101363.06;;;11.27;100.00
3122;BME280;1571;52.524;14.104;2024-02-15T10:34:21;101371.09;;;11.25;100.00
3122;BME280;1571;52.524;14.104;2024-02-15T10:36:50;101362.28;;;11.24;100.00
3122;BME280;1571;52.524;14.104;2024-02-15T10:39:19;101373.63;;;11.28;100.00
3122;BME280;1571;52.524;14.104;2024-02-15T10:41:49;101372.47;;;11.16;100.00
3122;BME280;1571;52.524;14.104;2024-02-15T10:44:18;101372.72;;;11.12;100.00
3122;BME280;1571;52.524;14.104;2024-02-15T10:46:49;101375.66;;;11.23;100.00
3122;BME280;1571;52.524;14.104;2024-02-15T10:49:20;101373.09;;;11.37;100.00
3122;BME280;1571;52.524;14.104;2024-02-15T10:51:51;101369.31;;;11.41;100.00
3122;BME280;1571;52.524;14.104;2024-02-15T10:54:43;101357.94;;;11.55;100.00
3122;BME280;1571;52.524;14.104;2024-02-15T10:57:20;101349.00;;;11.40;100.00
3122;BME280;1571;52.524;14.104;2024-02-15T10:59:54;101341.34;;;11.50;100.00
3122;BME280;1571;52.524;14.104;2024-02-15T11:02:28;101354.25;;;11.42;100.00
3122;BME280;1571;52.524;14.104;2024-02-15T11:05:02;101363.50;;;11.51;100.00
3122;BME280;1571;52.524;14.104;2024-02-15T11:07:33;101358.34;;;11.48;100.00
3122;BME280;1571;52.524;14.104;2024-02-15T11:10:02;101351.38;;;11.61;100.00
3122;BME280;1571;52.524;14.104;2024-02-15T11:12:35;101362.78;;;11.63;100.00
3122;BME280;1571;52.524;14.104;2024-02-15T11:15:05;101351.84;;;11.53;100.00
3122;BME280;1571;52.524;14.104;2024-02-15T11:17:47;101347.19;;;11.57;100.00
3122;BME280;1571;52.524;14.104;2024-02-15T11:20:52;101353.75;;;11.81;100.00
3122;BME280;1571;52.524;14.104;2024-02-15T11:23:24;101340.31;;;11.69;100.00
3122;BME280;1571;52.524;14.104;2024-02-15T11:26:04;101338.63;;;13.14;100.00
3122;BME280;1571;52.524;14.104;2024-02-15T11:28:38;101323.50;;;13.83;100.00
3122;BME280;1571;52.524;14.104;2024-02-15T11:31:08;101280.41;;;14.02;100.00
3122;BME280;1571;52.524;14.104;2024-02-15T11:33:39;101265.69;;;14.48;100.00
3122;BME280;1571;52.524;14.104;2024-02-15T11:36:10;101242.50;;;14.61;100.00
3122;BME280;1571;52.524;14.104;2024-02-15T11:38:40;101234.78;;;14.69;100.00
3122;BME280;1571;52.524;14.104;2024-02-15T11:41:11;101233.44;;;14.88;100.00
3122;BME280;1571;52.524;14.104;2024-02-15T11:43:47;101227.97;;;14.27;100.00
3122;BME280;1571;52.524;14.104;2024-02-15T11:46:18;101217.22;;;14.91;100.00
3122;BME280;1571;52.524;14.104;2024-02-15T11:48:47;101218.47;;;14.98;100.00
3122;BME280;1571;52.524;14.104;2024-02-15T11:51:26;101214.41;;;15.16;100.00
3122;BME280;1571;52.524;14.104;2024-02-15T11:54:06;101209.31;;;14.76;100.00
3122;BME280;1571;52.524;14.104;2024-02-15T11:56:54;101215.56;;;14.64;100.00
3122;BME280;1571;52.524;14.104;2024-02-15T11:59:39;101215.09;;;15.07;100.00
3122;BME280;1571;52.524;14.104;2024-02-15T12:02:20;101212.31;;;14.85;100.00
3122;BME280;1571;52.524;14.104;2024-02-15T12:05:06;101205.34;;;15.06;100.00
3122;BME280;1571;52.524;14.104;2024-02-15T12:07:54;101204.38;;;14.83;100.00
3122;BME280;1571;52.524;14.104;2024-02-15T12:10:40;101198.19;;;15.31;100.00
3122;BME280;1571;52.524;14.104;2024-02-15T12:13:27;101196.31;;;14.96;100.00
3122;BME280;1571;52.524;14.104;2024-02-15T12:16:15;101209.00;;;15.05;100.00
3122;BME280;1571;52.524;14.104;2024-02-15T12:19:01;101207.47;;;14.27;100.00
3122;BME280;1571;52.524;14.104;2024-02-15T12:21:31;101212.41;;;13.15;100.00
3122;BME280;1571;52.524;14.104;2024-02-15T12:24:02;101210.16;;;12.95;100.00
3122;BME280;1571;52.524;14.104;2024-02-15T12:26:33;101213.53;;;12.84;100.00
3122;BME280;1571;52.524;14.104;2024-02-15T12:29:02;101216.50;;;12.79;100.00
3122;BME280;1571;52.524;14.104;2024-02-15T12:31:35;101212.81;;;12.95;100.00
3122;BME280;1571;52.524;14.104;2024-02-15T12:34:05;101220.56;;;12.85;100.00
3122;BME280;1571;52.524;14.104;2024-02-15T12:36:35;101222.72;;;12.51;100.00
3122;BME280;1571;52.524;14.104;2024-02-15T12:39:07;101221.78;;;12.52;100.00
3122;BME280;1571;52.524;14.104;2024-02-15T12:41:40;101216.06;;;12.44;100.00
3122;BME280;1571;52.524;14.104;2024-02-15T12:44:09;101230.72;;;12.51;100.00
3122;BME280;1571;52.524;14.104;2024-02-15T12:46:38;101220.09;;;12.93;100.00
3122;BME280;1571;52.524;14.104;2024-02-15T12:49:09;101213.56;;;12.69;100.00
3122;BME280;1571;52.524;14.104;2024-02-15T12:51:49;101209.22;;;12.96;100.00
3122;BME280;1571;52.524;14.104;2024-02-15T12:54:20;101204.81;;;13.36;100.00
3122;BME280;1571;52.524;14.104;2024-02-15T12:56:49;101197.75;;;13.35;100.00
3122;BME280;1571;52.524;14.104;2024-02-15T12:59:18;101199.00;;;13.57;100.00
3122;BME280;1571;52.524;14.104;2024-02-15T13:01:48;101192.91;;;13.54;100.00
3122;BME280;1571;52.524;14.104;2024-02-15T13:04:23;101189.75;;;13.62;100.00
3122;BME280;1571;52.524;14.104;2024-02-15T13:06:51;101192.28;;;13.51;100.00
3122;BME280;1571;52.524;14.104;2024-02-15T13:09:21;101191.66;;;13.73;100.00
3122;BME280;1571;52.524;14.104;2024-02-15T13:11:50;101181.53;;;14.04;100.00
3122;BME280;1571;52.524;14.104;2024-02-15T13:14:21;101193.00;;;13.26;100.00